Time;durP1;ratioP1;P1;durP2;ratioP2;P2;SDS_P1;SDS_P2;PMS_P1;PMS_P2;Temp;Humidity;BMP_temperature;BMP_pressure;BME280_temperature;BME280_humidity;BME280_pressure;Samples;Min_cycle;Max_cycle;Signal;HPM_P1;HPM_P2
2021/09/05 00:01:34;;;;;;;7.47;6.13;;;17.60;99.90;;;;;;5057560;28;20208;-78
2021/09/05 00:04:01;;;;;;;9.57;7.07;;;17.60;99.90;;;;;;5046978;28;20196;-78
2021/09/05 00:06:30;;;;;;;6.25;5.65;;;17.50;99.90;;;;;;5046295;28;20219;-78
2021/09/05 00:08:57;;;;;;;11.80;7.38;;;17.50;99.90;;;;;;5057904;28;20191;-79
2021/09/05 00:11:24;;;;;;;6.70;6.10;;;17.50;99.90;;;;;;5043875;28;20215;-77
2021/09/05 00:13:51;;;;;;;8.20;6.05;;;17.60;99.90;;;;;;5057878;28;20192;-78
2021/09/05 00:16:17;;;;;;;6.65;6.03;;;17.50;99.90;;;;;;5058905;28;20199;-78
2021/09/05 00:18:44;;;;;;;7.47;6.00;;;17.50;99.90;;;;;;5054382;28;20695;-78
2021/09/05 00:21:11;;;;;;;7.88;6.00;;;17.50;99.90;;;;;;5047301;28;20639;-78
2021/09/05 00:23:39;;;;;;;6.60;5.93;;;17.50;99.90;;;;;;5050141;28;20188;-78
2021/09/05 00:26:06;;;;;;;9.10;6.65;;;17.50;99.90;;;;;;5057786;28;20196;-78
2021/09/05 00:28:33;;;;;;;6.85;6.22;;;17.40;99.90;;;;;;5051334;28;20227;-78
2021/09/05 00:31:00;;;;;;;7.25;5.93;;;17.40;99.90;;;;;;5039457;28;20311;-78
2021/09/05 00:33:27;;;;;;;7.68;6.00;;;17.40;99.90;;;;;;5047008;28;20599;-79
2021/09/05 00:35:54;;;;;;;7.38;6.22;;;17.40;99.90;;;;;;5055263;28;20270;-79
2021/09/05 00:38:20;;;;;;;9.60;5.85;;;17.40;99.90;;;;;;5049814;28;20261;-78
2021/09/05 00:40:48;;;;;;;7.13;6.03;;;17.40;99.90;;;;;;5051317;28;20211;-79
2021/09/05 00:43:15;;;;;;;6.90;6.15;;;17.40;99.90;;;;;;5052389;28;20192;-78
2021/09/05 00:45:42;;;;;;;8.10;6.15;;;17.40;99.90;;;;;;5058693;28;20195;-78
2021/09/05 00:48:08;;;;;;;6.38;5.80;;;17.30;99.90;;;;;;5058013;28;20656;-78
2021/09/05 00:50:36;;;;;;;6.15;5.45;;;17.40;99.90;;;;;;5059411;28;20270;-79
2021/09/05 00:53:04;;;;;;;7.20;5.65;;;17.30;99.90;;;;;;5056214;28;20216;-80
2021/09/05 00:55:35;;;;;;;6.32;5.72;;;17.30;99.90;;;;;;5049255;28;20195;-79
2021/09/05 00:58:03;;;;;;;6.65;5.45;;;17.30;99.90;;;;;;5041322;28;20238;-78
2021/09/05 01:00:31;;;;;;;6.18;5.57;;;17.30;99.90;;;;;;5053700;28;20211;-79
2021/09/05 01:02:58;;;;;;;6.15;5.35;;;17.30;99.90;;;;;;5053008;28;20200;-78
2021/09/05 01:05:25;;;;;;;6.72;6.13;;;17.20;99.90;;;;;;5053658;28;20632;-78
2021/09/05 01:07:52;;;;;;;7.05;6.03;;;17.40;99.90;;;;;;5048901;28;20191;-79
2021/09/05 01:10:18;;;;;;;7.10;5.90;;;17.20;99.90;;;;;;5049825;28;20195;-78
2021/09/05 01:12:45;;;;;;;6.65;5.50;;;17.20;99.90;;;;;;5053747;28;20196;-77
2021/09/05 01:15:14;;;;;;;7.57;6.05;;;17.20;99.90;;;;;;5054752;28;20200;-77
2021/09/05 01:17:40;;;;;;;9.13;6.25;;;17.20;99.90;;;;;;5041321;28;20230;-78
2021/09/05 01:20:09;;;;;;;6.85;5.68;;;17.20;99.90;;;;;;5042719;28;20220;-78
2021/09/05 01:22:37;;;;;;;6.93;5.55;;;17.20;99.90;;;;;;5045909;28;20199;-78
2021/09/05 01:25:04;;;;;;;6.35;5.07;;;17.20;99.90;;;;;;5048385;28;20262;-78
2021/09/05 01:27:32;;;;;;;6.90;5.45;;;17.20;99.90;;;;;;5048857;28;20192;-78
2021/09/05 01:29:59;;;;;;;6.53;5.35;;;17.20;99.90;;;;;;5059326;28;20257;-78
2021/09/05 01:32:25;;;;;;;9.50;5.85;;;17.10;99.90;;;;;;5046575;28;20563;-79
2021/09/05 01:34:52;;;;;;;9.15;6.55;;;17.10;99.90;;;;;;5044455;28;20191;-78
2021/09/05 01:37:19;;;;;;;6.05;5.55;;;17.10;99.90;;;;;;5056180;28;20199;-78
2021/09/05 01:39:46;;;;;;;5.72;5.22;;;17.10;99.90;;;;;;5053834;28;20203;-78
2021/09/05 01:42:12;;;;;;;8.93;5.65;;;17.20;99.90;;;;;;5050701;28;20343;-78
2021/09/05 01:44:40;;;;;;;8.20;5.63;;;17.50;99.90;;;;;;5058246;28;20256;-78
2021/09/05 01:47:07;;;;;;;5.78;5.05;;;17.10;99.90;;;;;;5053417;28;20204;-78
2021/09/05 01:49:34;;;;;;;6.43;5.57;;;17.00;99.90;;;;;;5047895;28;20715;-77
2021/09/05 01:52:00;;;;;;;6.22;5.30;;;17.00;99.90;;;;;;5048950;28;20249;-77
2021/09/05 01:54:27;;;;;;;6.47;4.88;;;17.10;99.90;;;;;;5046688;28;20698;-78
2021/09/05 01:56:54;;;;;;;5.40;4.90;;;17.00;99.90;;;;;;5052859;28;20192;-78
2021/09/05 01:59:20;;;;;;;5.63;5.05;;;17.00;99.90;;;;;;5050852;28;20199;-78
2021/09/05 02:01:48;;;;;;;5.97;5.38;;;17.00;99.90;;;;;;5048054;28;20203;-78
2021/09/05 02:04:15;;;;;;;6.40;5.00;;;17.00;99.90;;;;;;5051846;28;20206;-77
2021/09/05 02:06:42;;;;;;;6.40;5.68;;;16.90;99.90;;;;;;5048997;28;20195;-78
2021/09/05 02:09:09;;;;;;;6.25;5.25;;;17.00;99.90;;;;;;5035623;28;20199;-78
2021/09/05 02:11:35;;;;;;;8.70;5.70;;;17.00;99.90;;;;;;5036891;28;20203;-78
2021/09/05 02:14:03;;;;;;;5.97;5.38;;;16.90;99.90;;;;;;5050857;28;20203;-78
2021/09/05 02:16:30;;;;;;;7.00;5.80;;;16.90;99.90;;;;;;5053110;28;20203;-77
2021/09/05 02:18:58;;;;;;;8.40;6.22;;;16.90;99.90;;;;;;5043449;28;20242;-79
2021/09/05 02:21:24;;;;;;;7.53;5.40;;;17.00;99.90;;;;;;5041366;28;20221;-77
2021/09/05 02:23:51;;;;;;;5.30;4.80;;;16.90;99.90;;;;;;5039134;28;20208;-77
2021/09/05 02:26:18;;;;;;;7.18;5.63;;;16.90;99.90;;;;;;5046605;28;20619;-78
2021/09/05 02:28:44;;;;;;;8.43;6.57;;;16.90;99.90;;;;;;5055092;28;20195;-78
2021/09/05 02:31:11;;;;;;;6.50;5.68;;;16.90;99.90;;;;;;5057524;28;20265;-79
2021/09/05 02:33:38;;;;;;;6.82;5.60;;;16.90;99.90;;;;;;5049426;28;20596;-77
2021/09/05 02:36:06;;;;;;;6.50;5.43;;;16.90;99.90;;;;;;5055785;28;20541;-79
2021/09/05 02:38:33;;;;;;;5.93;4.72;;;16.80;99.90;;;;;;5045030;28;20195;-78
2021/09/05 02:40:59;;;;;;;8.07;6.15;;;16.80;99.90;;;;;;5041092;28;20208;-79
2021/09/05 02:43:26;;;;;;;5.65;5.07;;;16.90;99.90;;;;;;5054279;28;20187;-79
2021/09/05 02:45:53;;;;;;;6.63;5.40;;;16.40;99.90;;;;;;5059259;28;20207;-79
2021/09/05 02:48:20;;;;;;;8.75;5.78;;;16.80;99.90;;;;;;5049355;28;20200;-78
2021/09/05 02:50:46;;;;;;;6.15;5.55;;;16.90;99.90;;;;;;5053828;28;20203;-79
2021/09/05 02:53:14;;;;;;;5.40;4.90;;;16.80;99.90;;;;;;5047701;28;20192;-78
2021/09/05 02:55:41;;;;;;;8.40;5.30;;;16.80;99.90;;;;;;5044985;28;20673;-78
2021/09/05 02:58:08;;;;;;;8.48;5.75;;;16.70;99.90;;;;;;5055785;28;20191;-78
2021/09/05 03:00:34;;;;;;;6.07;5.20;;;16.70;99.90;;;;;;5053495;28;20401;-78
2021/09/05 03:03:01;;;;;;;6.05;5.45;;;16.70;99.90;;;;;;5041869;28;20248;-77
2021/09/05 03:05:28;;;;;;;5.90;5.30;;;16.70;99.90;;;;;;5049746;28;20195;-76
2021/09/05 03:07:54;;;;;;;6.50;5.78;;;16.70;99.90;;;;;;5044615;28;20722;-78
2021/09/05 03:10:22;;;;;;;7.78;6.45;;;16.70;99.90;;;;;;5045637;28;20557;-79
2021/09/05 03:12:49;;;;;;;5.65;5.15;;;16.80;99.90;;;;;;5042740;28;20716;-78
2021/09/05 03:15:16;;;;;;;5.68;5.15;;;16.70;99.90;;;;;;5035155;28;20196;-76
2021/09/05 03:17:42;;;;;;;6.88;5.05;;;16.70;99.90;;;;;;5045114;28;20199;-77
2021/09/05 03:20:10;;;;;;;7.05;5.82;;;16.60;99.90;;;;;;5050171;28;20207;-78
2021/09/05 03:22:37;;;;;;;6.20;5.00;;;16.60;99.90;;;;;;5051173;28;20253;-78
2021/09/05 03:25:05;;;;;;;6.68;4.60;;;16.60;99.90;;;;;;5042858;28;20287;-77
2021/09/05 03:27:33;;;;;;;6.68;6.03;;;16.60;99.90;;;;;;5051267;28;20192;-78
2021/09/05 03:30:00;;;;;;;5.82;5.22;;;16.60;99.90;;;;;;5049579;28;20242;-76
2021/09/05 03:32:26;;;;;;;6.60;5.90;;;16.60;99.90;;;;;;5046704;28;20207;-78
2021/09/05 03:34:53;;;;;;;6.03;5.40;;;16.60;99.90;;;;;;5037899;28;20207;-78
2021/09/05 03:37:20;;;;;;;10.63;6.03;;;16.60;99.90;;;;;;5037536;28;20192;-81
2021/09/05 03:39:47;;;;;;;5.75;5.25;;;16.60;99.90;;;;;;5047306;28;20192;-78
2021/09/05 03:42:14;;;;;;;7.80;6.07;;;16.60;99.90;;;;;;5054458;28;20571;-78
2021/09/05 03:44:42;;;;;;;9.15;5.70;;;16.50;99.90;;;;;;5057933;28;20203;-79
2021/09/05 03:47:08;;;;;;;6.82;5.63;;;16.50;99.90;;;;;;5043328;28;20246;-80
2021/09/05 03:49:35;;;;;;;5.80;4.82;;;16.50;99.90;;;;;;5037279;28;20201;-79
2021/09/05 03:52:02;;;;;;;6.70;5.75;;;16.50;99.90;;;;;;5038340;28;20220;-77
2021/09/05 03:54:29;;;;;;;7.13;5.78;;;16.50;99.90;;;;;;5047153;28;20203;-79
2021/09/05 03:56:56;;;;;;;6.75;5.85;;;16.50;99.90;;;;;;5045922;28;20195;-79
2021/09/05 03:59:22;;;;;;;6.60;5.38;;;16.50;99.90;;;;;;5051673;28;20215;-78
2021/09/05 04:01:51;;;;;;;5.82;5.22;;;16.50;99.90;;;;;;5044663;28;20214;-78
2021/09/05 04:04:17;;;;;;;6.30;5.80;;;16.40;99.90;;;;;;5037107;28;20270;-78
2021/09/05 04:06:49;;;;;;;8.73;6.68;;;16.40;99.90;;;;;;5045953;28;20219;-78
2021/09/05 04:10:08;;;;;;;9.60;6.00;;;16.40;99.90;;;;;;5036762;28;20220;-79
2021/09/05 04:12:05;;;;;;;7.60;5.80;;;16.40;99.90;;;;;;5044884;28;20310;-79
2021/09/05 04:14:32;;;;;;;6.22;5.15;;;16.40;99.90;;;;;;5047119;28;20922;-80
2021/09/05 04:17:00;;;;;;;6.13;5.43;;;16.40;99.90;;;;;;5043909;28;20612;-78
2021/09/05 04:19:26;;;;;;;5.97;5.38;;;16.40;99.90;;;;;;5047895;28;20616;-77
2021/09/05 04:21:53;;;;;;;5.30;4.80;;;16.40;99.90;;;;;;5047238;28;20249;-78
2021/09/05 04:24:21;;;;;;;7.93;6.25;;;16.40;99.90;;;;;;5053440;28;20196;-78
2021/09/05 04:26:48;;;;;;;6.80;5.18;;;16.30;99.90;;;;;;5045781;28;20607;-78
2021/09/05 04:29:14;;;;;;;6.47;5.70;;;16.60;99.90;;;;;;5063965;28;20196;-78
2021/09/05 04:31:41;;;;;;;6.72;5.85;;;16.30;99.90;;;;;;5061232;28;20211;-78
2021/09/05 04:34:09;;;;;;;10.18;7.47;;;16.70;99.90;;;;;;5062437;28;20636;-78
2021/09/05 04:36:36;;;;;;;8.13;6.32;;;16.30;99.90;;;;;;5063809;28;20734;-78
2021/09/05 04:39:03;;;;;;;6.57;5.57;;;16.30;99.90;;;;;;5057150;28;20653;-78
2021/09/05 04:41:29;;;;;;;5.90;5.18;;;16.30;99.90;;;;;;5062701;28;20258;-79
2021/09/05 04:43:56;;;;;;;7.95;6.07;;;16.30;99.90;;;;;;5049884;28;20557;-78
2021/09/05 04:46:23;;;;;;;8.00;6.45;;;16.30;99.90;;;;;;5045046;28;20269;-78
2021/09/05 04:48:49;;;;;;;5.22;4.57;;;16.20;99.90;;;;;;5056682;28;20207;-78
2021/09/05 04:51:17;;;;;;;6.75;6.05;;;16.20;99.90;;;;;;5054612;28;20188;-78
2021/09/05 04:53:44;;;;;;;6.85;5.43;;;16.30;99.90;;;;;;5060716;28;20196;-78
2021/09/05 04:56:11;;;;;;;6.25;5.40;;;16.20;99.90;;;;;;5047761;28;20748;-78
2021/09/05 04:58:38;;;;;;;6.70;5.45;;;16.20;99.90;;;;;;5046864;28;20190;-79
2021/09/05 05:01:04;;;;;;;8.38;5.97;;;16.10;99.90;;;;;;5049659;28;20687;-77
2021/09/05 05:03:31;;;;;;;7.93;5.60;;;16.20;99.90;;;;;;5036618;28;20200;-77
2021/09/05 05:05:58;;;;;;;7.35;5.90;;;16.20;99.90;;;;;;5043389;28;20537;-77
2021/09/05 05:08:26;;;;;;;7.38;5.57;;;16.10;99.90;;;;;;5040208;28;20196;-78
2021/09/05 05:10:53;;;;;;;7.32;6.63;;;16.20;99.90;;;;;;5039941;28;20192;-77
2021/09/05 05:13:19;;;;;;;5.45;4.60;;;16.20;99.90;;;;;;5040263;28;20212;-77
2021/09/05 05:15:46;;;;;;;10.02;5.88;;;16.10;99.90;;;;;;5048104;28;20196;-78
2021/09/05 05:18:13;;;;;;;9.30;6.00;;;16.20;99.90;;;;;;5034572;28;20250;-77
2021/09/05 05:20:40;;;;;;;6.53;5.05;;;16.10;99.90;;;;;;5034888;28;20220;-77
2021/09/05 05:23:06;;;;;;;6.43;5.80;;;16.10;99.90;;;;;;5048574;28;20199;-78
2021/09/05 05:25:34;;;;;;;6.63;5.25;;;16.10;99.90;;;;;;5037219;28;20245;-77
2021/09/05 05:28:01;;;;;;;7.53;5.00;;;16.10;99.90;;;;;;5038706;28;20200;-76
2021/09/05 05:30:28;;;;;;;7.35;5.80;;;16.10;99.90;;;;;;5035337;28;20188;-77
2021/09/05 05:32:55;;;;;;;7.45;5.40;;;16.10;99.90;;;;;;5046676;28;20219;-77
2021/09/05 05:35:22;;;;;;;6.35;5.75;;;16.10;99.90;;;;;;5053335;28;20196;-78
2021/09/05 05:37:49;;;;;;;8.10;6.55;;;16.20;99.90;;;;;;5041395;28;20208;-77
2021/09/05 05:40:16;;;;;;;7.53;5.80;;;16.10;99.90;;;;;;5038327;28;20196;-77
2021/09/05 05:42:44;;;;;;;6.75;5.32;;;16.10;99.90;;;;;;5043391;28;20290;-77
2021/09/05 05:45:11;;;;;;;6.40;5.78;;;16.00;99.90;;;;;;5053160;28;20195;-76
2021/09/05 05:47:38;;;;;;;6.15;5.20;;;16.10;99.90;;;;;;5047474;28;20665;-78
2021/09/05 05:50:05;;;;;;;6.85;5.22;;;16.10;99.90;;;;;;5047977;28;20195;-78
2021/09/05 05:52:32;;;;;;;6.20;4.88;;;16.10;99.90;;;;;;5045999;28;20667;-76
2021/09/05 05:54:59;;;;;;;7.57;5.53;;;16.10;99.90;;;;;;5042225;28;20274;-76
2021/09/05 05:57:25;;;;;;;7.05;5.68;;;16.20;99.90;;;;;;5033043;28;20250;-76
2021/09/05 05:59:54;;;;;;;5.97;5.30;;;16.40;99.90;;;;;;5032563;28;20266;-76
2021/09/05 06:02:21;;;;;;;7.63;5.63;;;16.60;99.90;;;;;;5044438;28;20244;-76
2021/09/05 06:04:47;;;;;;;6.32;5.72;;;16.90;99.90;;;;;;5050646;28;20203;-76
2021/09/05 06:07:14;;;;;;;6.95;5.47;;;17.00;99.90;;;;;;5038066;28;20208;-76
2021/09/05 06:09:41;;;;;;;6.75;5.45;;;17.20;99.90;;;;;;5035655;28;20249;-76
2021/09/05 06:12:09;;;;;;;7.30;5.53;;;17.40;99.90;;;;;;5044492;28;20687;-76
2021/09/05 06:14:36;;;;;;;6.57;5.50;;;17.50;99.90;;;;;;5044916;28;20192;-76
2021/09/05 06:17:05;;;;;;;5.03;4.53;;;17.80;99.90;;;;;;5045359;28;20561;-77
2021/09/05 06:19:32;;;;;;;7.45;5.35;;;17.80;99.90;;;;;;5051227;28;20223;-77
2021/09/05 06:21:58;;;;;;;5.15;4.75;;;17.90;99.90;;;;;;5046934;28;20246;-78
2021/09/05 06:24:25;;;;;;;8.75;5.70;;;18.10;99.90;;;;;;5041442;28;20192;-77
2021/09/05 06:26:52;;;;;;;5.40;4.60;;;18.20;99.90;;;;;;5049539;28;20306;-77
2021/09/05 06:29:18;;;;;;;5.65;5.15;;;18.30;99.90;;;;;;5048349;28;20192;-77
2021/09/05 06:31:45;;;;;;;6.75;5.70;;;18.30;99.90;;;;;;5037079;28;20284;-77
2021/09/05 06:34:13;;;;;;;6.47;5.05;;;18.40;99.90;;;;;;5043514;28;20305;-77
2021/09/05 06:36:40;;;;;;;5.90;5.07;;;18.50;99.90;;;;;;5050271;28;20223;-76
2021/09/05 06:39:07;;;;;;;5.07;4.45;;;18.60;99.90;;;;;;5039551;28;20196;-76
2021/09/05 06:41:33;;;;;;;7.32;5.53;;;18.70;99.90;;;;;;5042804;28;20211;-76
2021/09/05 06:44:00;;;;;;;9.18;5.25;;;18.80;99.90;;;;;;5043086;28;20195;-76
2021/09/05 06:46:27;;;;;;;4.55;4.15;;;18.90;99.90;;;;;;5032990;28;20653;-76
2021/09/05 06:48:54;;;;;;;4.43;3.95;;;18.90;99.90;;;;;;5041435;28;20196;-76
2021/09/05 06:51:22;;;;;;;6.18;4.55;;;19.00;99.90;;;;;;5048645;28;20782;-76
2021/09/05 06:53:49;;;;;;;5.47;4.80;;;19.00;99.90;;;;;;5035814;28;20230;-76
2021/09/05 06:56:15;;;;;;;5.25;4.45;;;19.10;99.90;;;;;;5047863;28;20241;-76
2021/09/05 06:58:42;;;;;;;5.60;4.57;;;19.20;99.90;;;;;;5050748;28;20199;-76
2021/09/05 07:01:09;;;;;;;4.95;4.45;;;19.20;99.90;;;;;;5050061;28;20204;-76
2021/09/05 07:03:35;;;;;;;8.57;5.95;;;19.30;99.90;;;;;;5038283;28;20204;-76
2021/09/05 07:06:02;;;;;;;7.90;5.45;;;19.40;99.90;;;;;;5039644;28;20569;-76
2021/09/05 07:08:30;;;;;;;8.02;4.97;;;19.40;99.90;;;;;;5051279;28;20192;-76
2021/09/05 07:10:57;;;;;;;5.38;4.70;;;19.40;99.90;;;;;;5054819;28;20202;-76
2021/09/05 07:13:24;;;;;;;5.35;4.82;;;19.50;99.90;;;;;;5050944;28;20549;-76
2021/09/05 07:15:50;;;;;;;4.95;4.15;;;19.60;99.90;;;;;;5049284;28;20207;-77
2021/09/05 07:18:17;;;;;;;5.95;5.03;;;19.60;99.90;;;;;;5039322;28;20241;-78
2021/09/05 07:20:44;;;;;;;5.88;5.28;;;19.70;99.90;;;;;;5051749;28;20207;-78
2021/09/05 07:23:10;;;;;;;5.40;4.32;;;19.70;99.90;;;;;;5052418;28;20195;-78
2021/09/05 07:25:39;;;;;;;4.90;4.15;;;19.80;99.90;;;;;;5052263;28;20258;-77
2021/09/05 07:28:05;;;;;;;7.50;5.28;;;19.80;99.90;;;;;;5049313;28;20619;-78
2021/09/05 07:30:32;;;;;;;5.75;4.70;;;19.90;99.90;;;;;;5039412;28;20196;-78
2021/09/05 07:32:59;;;;;;;5.90;5.20;;;19.90;99.90;;;;;;5048098;28;20207;-78
2021/09/05 07:35:26;;;;;;;7.00;4.15;;;20.00;99.90;;;;;;5037895;28;20254;-77
2021/09/05 07:37:52;;;;;;;5.18;4.65;;;20.00;99.90;;;;;;5033829;28;20278;-77
2021/09/05 07:40:21;;;;;;;6.43;5.03;;;20.00;99.90;;;;;;5043646;28;20196;-77
2021/09/05 07:42:49;;;;;;;5.40;4.80;;;20.10;99.90;;;;;;5048859;28;20294;-77
2021/09/05 07:45:16;;;;;;;5.57;4.20;;;20.10;99.90;;;;;;5032584;28;20246;-77
2021/09/05 07:47:42;;;;;;;8.88;6.05;;;20.20;99.90;;;;;;5042807;28;20195;-77
2021/09/05 07:50:10;;;;;;;5.05;4.55;;;20.20;99.90;;;;;;5032651;28;20193;-77
2021/09/05 07:52:37;;;;;;;5.18;4.65;;;20.30;99.90;;;;;;5048423;28;20223;-79
2021/09/05 07:55:05;;;;;;;6.50;5.57;;;20.30;99.90;;;;;;5058816;28;20222;-79
2021/09/05 07:57:31;;;;;;;6.53;5.65;;;20.40;99.90;;;;;;5060674;28;20211;-79
2021/09/05 07:59:59;;;;;;;6.53;5.60;;;20.40;99.90;;;;;;5060880;28;20223;-79
2021/09/05 08:02:26;;;;;;;9.38;5.68;;;20.40;99.90;;;;;;5059513;28;20521;-80
2021/09/05 08:04:53;;;;;;;5.40;4.38;;;20.40;99.90;;;;;;5052326;28;20226;-81
2021/09/05 08:07:20;;;;;;;6.72;4.47;;;20.40;99.90;;;;;;5057905;28;20302;-79
2021/09/05 08:09:47;;;;;;;5.03;4.53;;;20.40;99.90;;;;;;5052702;28;20192;-79
2021/09/05 08:12:13;;;;;;;5.55;5.05;;;20.40;99.90;;;;;;5060196;28;20188;-79
2021/09/05 08:14:40;;;;;;;6.45;5.38;;;20.40;99.90;;;;;;5047655;28;20216;-79
2021/09/05 08:17:08;;;;;;;5.53;5.03;;;20.40;99.90;;;;;;5052895;28;20245;-79
2021/09/05 08:19:35;;;;;;;6.70;5.85;;;20.40;99.90;;;;;;5051528;28;20266;-79
2021/09/05 08:22:01;;;;;;;8.13;4.85;;;20.40;99.90;;;;;;5053556;28;20544;-79
2021/09/05 08:24:28;;;;;;;8.55;5.43;;;20.50;99.90;;;;;;5057153;28;20195;-79
2021/09/05 08:26:55;;;;;;;6.53;5.18;;;20.50;99.90;;;;;;5057076;28;20607;-79
2021/09/05 08:29:21;;;;;;;5.55;4.95;;;20.50;99.90;;;;;;5060912;28;20275;-79
2021/09/05 08:31:48;;;;;;;5.40;4.90;;;20.50;99.90;;;;;;5060770;28;20195;-79
2021/09/05 08:34:16;;;;;;;5.75;4.97;;;20.60;99.90;;;;;;5044110;28;20262;-80
2021/09/05 08:36:43;;;;;;;9.38;4.55;;;20.60;99.90;;;;;;5041181;28;20550;-79
2021/09/05 08:39:10;;;;;;;5.80;5.30;;;20.70;99.90;;;;;;5040861;28;20203;-81
2021/09/05 08:41:38;;;;;;;7.28;6.18;;;20.70;99.90;;;;;;5056216;28;20253;-79
2021/09/05 08:44:05;;;;;;;5.13;4.40;;;20.70;99.90;;;;;;5054773;28;20299;-84
2021/09/05 08:46:31;;;;;;;7.30;4.97;;;20.80;99.90;;;;;;5055931;28;20607;-77
2021/09/05 08:49:01;;;;;;;6.55;4.95;;;20.80;99.90;;;;;;5042612;28;20199;-77
2021/09/05 08:51:29;;;;;;;6.00;5.35;;;20.80;99.90;;;;;;5052204;28;20191;-76
2021/09/05 08:53:56;;;;;;;5.47;4.90;;;20.90;99.90;;;;;;5043125;28;20254;-76
2021/09/05 08:56:22;;;;;;;7.13;5.97;;;20.90;99.90;;;;;;5040815;28;20582;-75
2021/09/05 08:58:49;;;;;;;7.95;5.45;;;20.90;99.90;;;;;;5047136;28;20323;-75
2021/09/05 09:01:18;;;;;;;6.30;5.70;;;20.90;99.90;;;;;;5052392;28;20208;-77
2021/09/05 09:03:44;;;;;;;5.15;4.57;;;20.90;99.90;;;;;;5053045;28;20204;-76
2021/09/05 09:06:17;;;;;;;9.30;6.38;;;20.90;99.90;;;;;;5049797;28;20200;-77
2021/09/05 09:08:55;;;;;;;6.80;6.10;;;20.90;99.90;;;;;;5051155;28;20200;-76
2021/09/05 09:11:21;;;;;;;5.20;4.43;;;20.90;99.90;;;;;;5033969;28;20200;-76
2021/09/05 09:13:56;;;;;;;7.45;5.03;;;21.00;99.90;;;;;;5048663;28;20220;-76
2021/09/05 09:16:23;;;;;;;7.47;5.55;;;20.90;99.90;;;;;;5053058;28;20238;-76
2021/09/05 09:18:53;;;;;;;6.20;4.85;;;21.00;99.90;;;;;;5039030;28;20296;-76
2021/09/05 09:21:20;;;;;;;6.85;6.15;;;21.00;99.90;;;;;;5051611;28;20668;-76
2021/09/05 09:23:50;;;;;;;5.90;5.40;;;21.00;99.90;;;;;;5051078;28;20210;-76
2021/09/05 09:26:18;;;;;;;5.43;4.63;;;21.00;99.90;;;;;;5033673;28;20219;-76
2021/09/05 09:28:46;;;;;;;6.25;4.70;;;21.00;99.90;;;;;;5033500;28;20196;-76
2021/09/05 09:31:15;;;;;;;7.68;5.75;;;21.00;99.90;;;;;;5050615;28;20195;-76
2021/09/05 09:33:43;;;;;;;9.20;6.00;;;21.00;99.90;;;;;;5047108;28;20223;-75
2021/09/05 09:36:13;;;;;;;5.78;5.20;;;21.00;99.90;;;;;;5033670;28;20672;-76
2021/09/05 09:38:42;;;;;;;6.22;5.07;;;21.00;99.90;;;;;;5033306;28;20208;-76
2021/09/05 09:41:12;;;;;;;6.10;5.47;;;21.00;99.90;;;;;;5051299;28;20207;-76
2021/09/05 09:43:54;;;;;;;7.10;5.45;;;21.00;99.90;;;;;;5053079;28;20683;-76
2021/09/05 09:46:23;;;;;;;8.32;6.30;;;20.90;99.90;;;;;;5050367;28;20202;-76
2021/09/05 09:48:52;;;;;;;10.00;6.38;;;20.90;99.90;;;;;;5047891;28;20203;-76
2021/09/05 09:51:19;;;;;;;7.75;5.45;;;20.90;99.90;;;;;;5049588;28;20199;-76
2021/09/05 09:53:47;;;;;;;8.70;7.15;;;20.90;99.90;;;;;;5053508;28;20337;-77
2021/09/05 09:56:17;;;;;;;7.05;5.85;;;20.90;99.90;;;;;;5039862;28;20195;-76
2021/09/05 09:58:45;;;;;;;9.15;6.97;;;20.90;99.90;;;;;;5033016;28;20200;-76
2021/09/05 10:01:14;;;;;;;7.35;6.15;;;20.90;99.90;;;;;;5033063;28;20200;-76
2021/09/05 10:03:42;;;;;;;8.10;7.30;;;20.80;99.90;;;;;;5036505;28;20287;-76
2021/09/05 10:06:10;;;;;;;7.07;6.35;;;20.80;99.90;;;;;;5042340;28;20202;-76
2021/09/05 10:08:39;;;;;;;7.55;6.80;;;20.80;99.90;;;;;;5040820;28;20242;-76
2021/09/05 10:11:09;;;;;;;10.57;8.80;;;20.80;99.90;;;;;;5033737;28;20291;-76
2021/09/05 10:13:38;;;;;;;9.70;7.68;;;20.80;99.90;;;;;;5031868;28;20220;-76
2021/09/05 10:16:06;;;;;;;10.18;7.78;;;20.80;99.90;;;;;;5049073;28;20198;-75
2021/09/05 10:18:34;;;;;;;8.13;7.03;;;20.80;99.90;;;;;;5035179;28;20257;-76
2021/09/05 10:21:01;;;;;;;7.30;6.57;;;20.80;99.90;;;;;;5043445;28;20212;-76
2021/09/05 10:23:29;;;;;;;9.60;6.82;;;20.70;99.90;;;;;;5052724;28;20256;-76
2021/09/05 10:25:56;;;;;;;9.85;6.93;;;20.70;99.90;;;;;;5050734;28;20568;-76
2021/09/05 10:28:38;;;;;;;12.93;9.70;;;20.70;99.90;;;;;;5051220;28;20199;-76
2021/09/05 10:31:06;;;;;;;12.80;8.38;;;20.70;99.90;;;;;;5052500;28;20621;-76
2021/09/05 10:33:36;;;;;;;8.60;7.50;;;20.70;99.90;;;;;;5041832;28;20216;-76
2021/09/05 10:36:10;;;;;;;9.40;7.72;;;20.60;99.90;;;;;;5032542;28;20204;-76
2021/09/05 10:38:38;;;;;;;7.95;6.32;;;20.60;99.90;;;;;;5049514;28;20200;-76
2021/09/05 10:41:09;;;;;;;8.35;7.22;;;20.60;99.90;;;;;;5050958;28;20204;-76
2021/09/05 10:44:05;;;;;;;11.15;8.27;;;20.60;99.90;;;;;;5052832;28;20206;-76
2021/09/05 10:46:35;;;;;;;9.57;8.30;;;20.60;99.90;;;;;;5050692;28;20238;-76
2021/09/05 10:49:04;;;;;;;11.48;9.00;;;20.60;99.90;;;;;;5049116;28;20199;-77
2021/09/05 10:51:33;;;;;;;10.95;8.43;;;20.60;99.90;;;;;;5052152;28;20203;-76
2021/09/05 10:54:01;;;;;;;10.30;9.20;;;20.60;99.90;;;;;;5050525;28;20211;-76
2021/09/05 10:56:30;;;;;;;16.23;10.07;;;20.60;99.90;;;;;;5050908;28;20608;-76
2021/09/05 10:58:59;;;;;;;10.32;7.95;;;20.50;99.90;;;;;;5051935;28;20660;-76
2021/09/05 11:01:31;;;;;;;9.82;7.88;;;20.50;99.90;;;;;;5049930;28;20203;-76
2021/09/05 11:04:21;;;;;;;11.02;9.90;;;20.50;99.90;;;;;;5050223;28;20203;-76
2021/09/05 11:06:50;;;;;;;14.95;10.15;;;20.50;99.90;;;;;;5051945;28;20203;-76
2021/09/05 11:09:48;;;;;;;11.10;8.68;;;20.60;99.90;;;;;;5046400;28;20727;-76
2021/09/05 11:12:22;;;;;;;12.35;10.50;;;20.50;99.90;;;;;;5050930;28;20196;-76
2021/09/05 11:15:19;;;;;;;11.40;9.63;;;20.50;99.90;;;;;;5051900;28;20222;-76
2021/09/05 11:17:53;;;;;;;10.43;8.15;;;20.50;99.90;;;;;;5049319;28;20611;-76
2021/09/05 11:20:20;;;;;;;13.63;10.32;;;20.50;99.90;;;;;;5032131;28;20224;-75
2021/09/05 11:22:48;;;;;;;11.63;9.27;;;20.50;99.90;;;;;;5031690;28;20200;-76
2021/09/05 11:25:18;;;;;;;12.73;7.82;;;20.60;99.90;;;;;;5033217;28;20258;-76
2021/09/05 11:27:51;;;;;;;12.73;9.27;;;20.50;99.90;;;;;;5046963;28;20203;-76
2021/09/05 11:30:19;;;;;;;13.02;10.32;;;20.60;99.90;;;;;;5053004;28;20195;-76
2021/09/05 11:32:46;;;;;;;11.88;9.60;;;20.60;99.90;;;;;;5054514;28;20296;-76
2021/09/05 11:35:13;;;;;;;12.73;10.63;;;20.60;99.90;;;;;;5055881;28;20230;-76
2021/09/05 11:37:42;;;;;;;11.40;9.63;;;20.60;99.90;;;;;;5054635;28;20245;-76
2021/09/05 11:40:10;;;;;;;12.18;9.57;;;20.60;99.90;;;;;;5044017;28;20278;-76
2021/09/05 11:42:38;;;;;;;11.52;9.93;;;20.60;99.90;;;;;;5035754;28;20232;-76
2021/09/05 11:45:06;;;;;;;10.80;9.43;;;20.60;99.90;;;;;;5045319;28;20253;-76
2021/09/05 11:47:34;;;;;;;10.65;9.30;;;20.60;99.90;;;;;;5054581;28;20187;-76
2021/09/05 11:50:03;;;;;;;11.68;10.35;;;20.60;99.90;;;;;;5042780;28;20200;-76
2021/09/05 11:52:31;;;;;;;11.15;9.95;;;20.60;99.90;;;;;;5037186;28;20652;-76
2021/09/05 11:55:03;;;;;;;11.45;10.02;;;20.60;99.90;;;;;;5045244;28;20249;-76
2021/09/05 11:57:30;;;;;;;10.48;9.18;;;20.60;99.90;;;;;;5043354;28;20207;-76
2021/09/05 12:00:00;;;;;;;12.93;9.32;;;20.60;99.90;;;;;;5053088;28;20203;-76
2021/09/05 12:02:28;;;;;;;12.52;10.25;;;20.60;99.90;;;;;;5053193;28;20196;-76
2021/09/05 12:04:57;;;;;;;14.05;10.32;;;20.60;99.90;;;;;;5048579;28;20199;-76
2021/09/05 12:07:24;;;;;;;11.15;9.50;;;20.60;99.90;;;;;;5051531;28;20200;-76
2021/09/05 12:10:05;;;;;;;10.63;9.27;;;20.60;99.90;;;;;;5053755;28;20199;-76
2021/09/05 12:12:32;;;;;;;10.82;9.25;;;20.60;99.90;;;;;;5054855;28;20199;-76
2021/09/05 12:14:59;;;;;;;12.13;10.85;;;20.60;99.90;;;;;;5053299;28;20783;-76
2021/09/05 12:17:29;;;;;;;11.27;9.65;;;20.60;99.90;;;;;;5046255;28;20275;-76
2021/09/05 12:20:02;;;;;;;11.45;10.00;;;20.60;99.90;;;;;;5034592;28;20251;-76
2021/09/05 12:22:41;;;;;;;10.38;9.38;;;20.60;99.90;;;;;;5041684;28;20199;-76
2021/09/05 12:25:13;;;;;;;14.40;11.35;;;20.60;99.90;;;;;;5038103;28;20338;-76
2021/09/05 12:27:40;;;;;;;12.68;9.93;;;20.60;99.90;;;;;;5054766;28;20341;-76
2021/09/05 12:30:21;;;;;;;11.10;9.60;;;20.70;99.90;;;;;;5054390;28;20541;-76
2021/09/05 12:33:03;;;;;;;11.90;9.40;;;20.60;99.90;;;;;;5044976;28;20542;-76
2021/09/05 12:35:31;;;;;;;11.25;9.70;;;20.60;99.90;;;;;;5051298;28;20212;-76
2021/09/05 12:38:04;;;;;;;11.57;10.38;;;20.60;99.90;;;;;;5041346;28;20666;-76
2021/09/05 12:40:35;;;;;;;14.70;11.30;;;20.60;99.90;;;;;;5034435;28;20192;-76
2021/09/05 12:43:01;;;;;;;14.27;10.40;;;20.60;99.90;;;;;;5034699;28;20185;-76
2021/09/05 12:45:28;;;;;;;12.40;11.00;;;20.60;99.90;;;;;;5035420;28;20669;-76
2021/09/05 12:48:14;;;;;;;14.13;11.57;;;20.60;99.90;;;;;;5048647;28;20196;-78
2021/09/05 12:50:43;;;;;;;14.80;10.32;;;20.60;99.90;;;;;;5054028;28;20199;-75